createdAt,value
2023-08-22T00:00:35.286Z,21.08
2023-08-22T00:03:03.369Z,20.60
2023-08-22T00:05:33.013Z,21.07
2023-08-22T00:08:05.356Z,21.28
2023-08-22T00:10:35.166Z,21.30
2023-08-22T00:13:04.287Z,21.54
2023-08-22T00:15:32.320Z,21.55
2023-08-22T00:18:00.213Z,20.88
2023-08-22T00:20:28.521Z,20.75
2023-08-22T00:22:56.290Z,20.63
2023-08-22T00:25:24.012Z,21.12
2023-08-22T00:27:51.777Z,20.74
2023-08-22T00:30:21.955Z,20.95
2023-08-22T00:32:49.750Z,20.82
2023-08-22T00:35:17.561Z,20.40
2023-08-22T00:37:45.457Z,20.48
2023-08-22T00:40:13.939Z,20.48
2023-08-22T00:42:41.770Z,20.29
2023-08-22T00:45:11.724Z,20.14
2023-08-22T00:47:39.885Z,20.05
2023-08-22T00:50:08.399Z,20.05
2023-08-22T00:52:36.234Z,20.46
2023-08-22T00:55:04.310Z,21.10
2023-08-22T00:57:32.078Z,21.47
2023-08-22T01:00:03.214Z,21.15
2023-08-22T01:02:31.114Z,21.22
2023-08-22T01:04:59.260Z,21.25
2023-08-22T01:07:39.617Z,21.52
2023-08-22T01:10:25.854Z,21.43
2023-08-22T01:13:10.803Z,21.16
2023-08-22T01:15:41.966Z,21.44
2023-08-22T01:18:12.435Z,21.81
2023-08-22T01:20:40.180Z,21.67
2023-08-22T01:23:08.185Z,21.59
2023-08-22T01:25:37.588Z,20.89
2023-08-22T01:28:16.049Z,20.79
2023-08-22T01:31:05.560Z,20.83
2023-08-22T01:33:59.635Z,20.32
2023-08-22T01:36:27.850Z,20.76
2023-08-22T01:38:57.705Z,21.02
2023-08-22T01:41:25.828Z,21.45
2023-08-22T01:43:53.562Z,21.70
2023-08-22T01:46:21.390Z,22.00
2023-08-22T01:48:49.302Z,21.56
2023-08-22T01:51:17.117Z,21.37
2023-08-22T01:53:44.971Z,21.58
2023-08-22T01:56:12.685Z,21.63
2023-08-22T01:58:40.668Z,20.60
2023-08-22T02:01:13.122Z,20.90
2023-08-22T02:03:42.970Z,21.20
2023-08-22T02:06:10.924Z,21.15
2023-08-22T02:08:40.513Z,20.89
2023-08-22T02:11:08.841Z,21.23
2023-08-22T02:13:36.591Z,20.77
2023-08-22T02:16:04.679Z,20.40
2023-08-22T02:18:32.457Z,20.93
2023-08-22T02:21:04.159Z,21.35
2023-08-22T02:23:33.457Z,21.06
2023-08-22T02:26:01.265Z,21.32
2023-08-22T02:28:29.055Z,21.02
2023-08-22T02:30:57.598Z,21.01
2023-08-22T02:33:25.452Z,20.74
2023-08-22T02:35:53.284Z,21.33
2023-08-22T02:38:21.064Z,21.08
2023-08-22T02:40:50.863Z,21.47
2023-08-22T02:43:18.597Z,21.73
2023-08-22T02:45:47.311Z,21.48
2023-08-22T02:48:15.389Z,21.01
2023-08-22T02:50:43.448Z,20.84
2023-08-22T02:53:15.582Z,21.09
2023-08-22T02:55:47.319Z,21.31
2023-08-22T02:58:15.177Z,21.35
2023-08-22T03:00:47.102Z,21.38
2023-08-22T03:03:15.548Z,21.49
2023-08-22T03:05:44.044Z,21.24
2023-08-22T03:08:11.810Z,20.95
2023-08-22T03:10:39.523Z,20.48
2023-08-22T03:13:07.364Z,20.86
2023-08-22T03:15:35.137Z,20.24
2023-08-22T03:18:03.534Z,20.39
2023-08-22T03:20:31.926Z,20.47
2023-08-22T03:23:01.956Z,20.89
2023-08-22T03:25:29.804Z,20.60
2023-08-22T03:27:57.598Z,20.68
2023-08-22T03:30:25.357Z,20.55
2023-08-22T03:32:53.113Z,20.59
2023-08-22T03:35:21.055Z,20.87
2023-08-22T03:37:48.848Z,20.92
2023-08-22T03:40:16.793Z,20.89
2023-08-22T03:42:46.341Z,20.25
2023-08-22T03:45:14.251Z,20.50
2023-08-22T03:47:42.160Z,20.65
2023-08-22T03:50:10.313Z,21.02
2023-08-22T03:52:38.032Z,20.78
2023-08-22T03:55:06.547Z,20.41
2023-08-22T03:57:34.269Z,20.64
2023-08-22T04:00:02.129Z,20.75
2023-08-22T04:02:30.489Z,20.64
2023-08-22T04:04:59.133Z,21.21
2023-08-22T04:07:27.791Z,21.17
2023-08-22T04:09:55.518Z,20.97
2023-08-22T04:12:23.222Z,20.92
2023-08-22T04:14:51.381Z,20.77
2023-08-22T04:17:19.239Z,20.40
2023-08-22T04:19:47.847Z,20.51
2023-08-22T04:22:15.956Z,21.13
2023-08-22T04:24:43.689Z,20.88
2023-08-22T04:27:11.777Z,21.16
2023-08-22T04:29:40.009Z,20.95
2023-08-22T04:32:07.732Z,20.75
2023-08-22T04:34:35.561Z,20.84
2023-08-22T04:37:05.420Z,20.91
2023-08-22T04:39:33.575Z,20.65
2023-08-22T04:42:11.489Z,20.18
2023-08-22T04:44:55.051Z,19.94
2023-08-22T04:47:23.315Z,20.16
2023-08-22T04:49:51.641Z,19.97
2023-08-22T04:52:19.481Z,20.83
2023-08-22T04:54:47.331Z,20.36
2023-08-22T04:57:15.022Z,20.65
2023-08-22T04:59:42.757Z,21.19
2023-08-22T05:02:10.549Z,21.11
2023-08-22T05:04:38.980Z,21.63
2023-08-22T05:07:07.063Z,21.31
2023-08-22T05:09:35.121Z,21.66
2023-08-22T05:12:03.067Z,21.60
2023-08-22T05:14:33.399Z,22.03
2023-08-22T05:17:01.385Z,21.18
2023-08-22T05:19:29.306Z,21.07
2023-08-22T05:21:57.064Z,21.04
2023-08-22T05:24:25.422Z,21.53
2023-08-22T05:26:53.248Z,21.26
2023-08-22T05:29:21.873Z,21.30
2023-08-22T05:31:49.993Z,21.60
2023-08-22T05:34:18.029Z,21.76
2023-08-22T05:36:45.957Z,21.91
2023-08-22T05:39:14.194Z,21.80
2023-08-22T05:41:41.876Z,21.81
2023-08-22T05:44:09.577Z,22.20
2023-08-22T05:46:38.135Z,22.56
2023-08-22T05:49:06.391Z,22.97
2023-08-22T05:51:34.259Z,22.82
2023-08-22T05:54:01.973Z,22.21
2023-08-22T05:56:30.140Z,22.63
2023-08-22T05:58:57.862Z,22.71
2023-08-22T06:01:25.723Z,22.43
2023-08-22T06:03:53.910Z,23.02
2023-08-22T06:06:21.850Z,22.89
2023-08-22T06:08:51.246Z,22.79
2023-08-22T06:11:19.152Z,23.06
2023-08-22T06:13:46.981Z,23.37
2023-08-22T06:16:15.335Z,23.12
2023-08-22T06:18:43.916Z,22.90
2023-08-22T06:21:11.995Z,23.15
2023-08-22T06:23:39.869Z,23.00
2023-08-22T06:26:14.393Z,24.47
2023-08-22T06:28:47.069Z,23.31
2023-08-22T06:31:15.063Z,23.31
2023-08-22T06:33:42.996Z,24.43
2023-08-22T06:36:11.186Z,24.27
2023-08-22T06:38:39.125Z,23.91
2023-08-22T06:41:08.807Z,24.43
2023-08-22T06:43:36.556Z,24.89
2023-08-22T06:46:04.325Z,24.11
2023-08-22T06:48:41.685Z,24.29
2023-08-22T06:51:10.813Z,24.25
2023-08-22T06:53:38.581Z,23.43
2023-08-22T06:56:06.362Z,24.42
2023-08-22T06:58:34.231Z,23.67
2023-08-22T07:01:05.373Z,23.19
2023-08-22T07:03:33.385Z,22.87
2023-08-22T07:06:01.131Z,23.76
2023-08-22T07:08:29.938Z,24.06
2023-08-22T07:11:05.343Z,23.55
2023-08-22T07:13:37.313Z,24.17
2023-08-22T07:16:05.369Z,24.46
2023-08-22T07:18:33.136Z,24.37
2023-08-22T07:21:08.386Z,24.34
2023-08-22T07:23:36.137Z,24.65
2023-08-22T07:26:03.968Z,25.32
2023-08-22T07:28:31.749Z,24.24
2023-08-22T07:31:01.355Z,25.22
2023-08-22T07:33:29.254Z,24.75
2023-08-22T07:35:56.984Z,25.42
2023-08-22T07:38:26.557Z,25.40
2023-08-22T07:40:54.417Z,25.85
2023-08-22T07:43:22.248Z,25.99
2023-08-22T07:45:49.972Z,25.84
2023-08-22T07:48:18.222Z,25.52
2023-08-22T07:50:45.972Z,25.26
2023-08-22T07:53:13.844Z,24.08
2023-08-22T07:55:41.486Z,24.17
2023-08-22T07:58:09.196Z,24.71
2023-08-22T08:00:36.944Z,24.68
2023-08-22T08:03:05.204Z,23.97
2023-08-22T08:05:34.622Z,24.35
2023-08-22T08:08:02.411Z,24.02
2023-08-22T08:10:30.283Z,24.39
2023-08-22T08:12:58.342Z,24.61
2023-08-22T08:15:26.199Z,25.28
2023-08-22T08:17:54.044Z,25.28
2023-08-22T08:20:22.317Z,25.36
2023-08-22T08:22:50.069Z,24.84
2023-08-22T08:25:17.916Z,25.26
2023-08-22T08:27:47.244Z,24.61
2023-08-22T08:30:17.403Z,24.63
2023-08-22T08:32:45.334Z,24.38
2023-08-22T08:35:13.945Z,24.58
2023-08-22T08:37:41.646Z,25.02
2023-08-22T08:40:10.224Z,24.87
2023-08-22T08:42:38.359Z,25.87
2023-08-22T08:45:07.485Z,26.31
2023-08-22T08:47:35.982Z,26.17
2023-08-22T08:50:06.995Z,25.85
2023-08-22T08:52:35.259Z,26.90
2023-08-22T08:55:08.267Z,26.93
2023-08-22T08:57:36.137Z,26.36
2023-08-22T09:00:04.491Z,26.63
2023-08-22T09:02:32.827Z,26.38
2023-08-22T09:05:00.811Z,26.41
2023-08-22T09:07:29.210Z,25.12
2023-08-22T09:09:58.437Z,24.69
2023-08-22T09:12:34.704Z,25.01
2023-08-22T09:15:07.709Z,24.82
2023-08-22T09:17:35.607Z,25.22
2023-08-22T09:20:11.501Z,25.58
2023-08-22T09:22:39.692Z,26.94
2023-08-22T09:25:09.079Z,27.14
2023-08-22T09:27:38.356Z,27.18
2023-08-22T09:30:07.290Z,26.89
2023-08-22T09:32:35.196Z,27.48
2023-08-22T09:35:03.940Z,26.38
2023-08-22T09:37:38.947Z,27.24
2023-08-22T09:40:10.707Z,27.59
2023-08-22T09:42:41.826Z,27.64
2023-08-22T09:45:10.622Z,27.49
2023-08-22T09:47:48.602Z,26.66
2023-08-22T09:50:18.943Z,27.02
2023-08-22T09:52:48.542Z,27.68
2023-08-22T09:55:17.267Z,27.06
2023-08-22T09:57:45.839Z,26.36
2023-08-22T10:00:14.371Z,25.74
2023-08-22T10:02:43.868Z,26.86
2023-08-22T10:05:14.079Z,27.51
2023-08-22T10:07:41.987Z,27.16
2023-08-22T10:10:10.731Z,27.29
2023-08-22T10:12:40.591Z,28.26
2023-08-22T10:15:09.781Z,28.75
2023-08-22T10:17:41.082Z,28.11
2023-08-22T10:20:13.309Z,28.93
2023-08-22T10:22:41.227Z,29.03
2023-08-22T10:25:09.657Z,28.90
2023-08-22T10:27:43.411Z,27.65
2023-08-22T10:30:14.364Z,27.34
2023-08-22T10:32:43.101Z,27.93
2023-08-22T10:35:10.673Z,28.71
2023-08-22T10:37:48.469Z,27.74
2023-08-22T10:40:31.474Z,28.59
2023-08-22T10:43:12.196Z,27.64
2023-08-22T10:45:49.938Z,27.64
2023-08-22T10:48:20.482Z,27.46
2023-08-22T10:50:52.140Z,27.35
2023-08-22T10:53:25.347Z,26.42
2023-08-22T10:55:54.667Z,27.42
2023-08-22T10:58:40.173Z,26.97
2023-08-22T11:01:16.225Z,27.31
2023-08-22T11:03:45.230Z,27.94
2023-08-22T11:06:19.440Z,28.30
2023-08-22T11:08:47.524Z,27.14
2023-08-22T11:11:18.177Z,26.96
2023-08-22T11:13:46.238Z,26.90
2023-08-22T11:16:19.106Z,27.33
2023-08-22T11:18:50.842Z,26.55
2023-08-22T11:21:18.901Z,26.72
2023-08-22T11:23:46.958Z,27.03
2023-08-22T11:26:21.572Z,27.10
2023-08-22T11:28:52.558Z,26.83
2023-08-22T11:31:23.061Z,28.07
2023-08-22T11:33:52.391Z,27.93
2023-08-22T11:36:27.548Z,27.92
2023-08-22T11:38:58.814Z,28.32
2023-08-22T11:41:26.791Z,29.07
2023-08-22T11:44:02.809Z,29.66
2023-08-22T11:46:45.870Z,28.87
2023-08-22T11:49:50.574Z,29.30
2023-08-22T11:52:20.996Z,29.10
2023-08-22T11:55:10.092Z,29.40
2023-08-22T11:58:02.364Z,30.20
2023-08-22T12:00:57.747Z,30.30
2023-08-22T12:03:26.850Z,30.47
2023-08-22T12:06:24.528Z,30.61
2023-08-22T12:09:30.354Z,30.75
2023-08-22T12:12:31.633Z,31.74
2023-08-22T12:15:10.110Z,32.43
2023-08-22T12:18:03.663Z,31.89
2023-08-22T12:20:35.616Z,30.89
2023-08-22T12:23:13.823Z,30.53
2023-08-22T12:26:15.002Z,30.94
2023-08-22T12:28:55.734Z,30.81
2023-08-22T12:33:57.777Z,30.66
2023-08-22T12:34:27.225Z,29.35
2023-08-22T12:37:05.741Z,28.66
2023-08-22T12:39:46.532Z,28.72
2023-08-22T12:42:16.785Z,28.39
2023-08-22T12:45:18.795Z,29.23
2023-08-22T12:48:36.661Z,28.54
2023-08-22T12:51:06.969Z,28.95
2023-08-22T12:53:37.000Z,28.74
2023-08-22T12:56:07.604Z,29.49
2023-08-22T12:58:35.980Z,28.90
2023-08-22T13:01:04.446Z,28.40
2023-08-22T13:03:34.545Z,29.27
2023-08-22T13:06:06.731Z,29.74
2023-08-22T13:08:57.222Z,28.67
2023-08-22T13:11:32.292Z,29.13
2023-08-22T13:14:27.687Z,29.15
2023-08-22T13:17:25.661Z,28.92
2023-08-22T13:19:57.214Z,30.25
2023-08-22T13:22:27.866Z,29.04
2023-08-22T13:24:55.714Z,28.79
2023-08-22T13:27:23.824Z,29.68
2023-08-22T13:29:51.952Z,28.92
2023-08-22T13:36:42.333Z,29.92
2023-08-22T13:39:12.717Z,29.66
2023-08-22T13:41:40.461Z,29.12
2023-08-22T13:44:08.280Z,28.93
2023-08-22T13:46:36.726Z,28.92
2023-08-22T13:49:04.664Z,29.28
2023-08-22T13:51:34.367Z,29.04
2023-08-22T13:54:03.918Z,28.91
2023-08-22T13:56:32.396Z,28.01
2023-08-22T13:59:00.142Z,28.91
2023-08-22T14:01:28.145Z,28.49
2023-08-22T14:03:55.890Z,29.19
2023-08-22T14:06:23.788Z,28.74
2023-08-22T14:08:58.162Z,28.73
2023-08-22T14:11:27.470Z,28.40
2023-08-22T14:13:57.946Z,28.29
2023-08-22T14:16:25.804Z,28.81
2023-08-22T14:18:53.566Z,29.29
2023-08-22T14:21:23.291Z,28.39
2023-08-22T14:23:53.163Z,29.37
2023-08-22T14:26:20.937Z,29.40
2023-08-22T14:28:48.713Z,29.74
2023-08-22T14:31:16.509Z,29.81
2023-08-22T14:33:44.355Z,27.33
2023-08-22T14:36:12.819Z,28.05
2023-08-22T14:38:40.729Z,27.97
2023-08-22T14:41:08.460Z,28.15
2023-08-22T14:43:36.276Z,27.92
2023-08-22T14:46:05.289Z,28.53
2023-08-22T14:48:34.098Z,29.35
2023-08-22T14:51:02.313Z,28.43
2023-08-22T14:53:30.271Z,28.63
2023-08-22T14:56:03.831Z,29.14
2023-08-22T14:58:46.058Z,29.75
2023-08-22T15:01:15.468Z,29.00
2023-08-22T15:03:43.760Z,29.49
2023-08-22T15:06:13.837Z,30.35
2023-08-22T15:08:42.111Z,29.88
2023-08-22T15:11:09.869Z,29.68
2023-08-22T15:13:37.896Z,30.13
2023-08-22T15:16:05.792Z,29.16
2023-08-22T15:18:33.572Z,28.59
2023-08-22T15:21:01.952Z,28.07
2023-08-22T15:23:30.311Z,29.41
2023-08-22T15:25:59.246Z,29.56
2023-08-22T15:28:27.643Z,29.67
2023-08-22T15:31:00.605Z,29.13
2023-08-22T15:33:31.538Z,28.76
2023-08-22T15:36:01.026Z,28.54
2023-08-22T15:38:33.689Z,28.56
2023-08-22T15:41:07.061Z,28.28
2023-08-22T15:43:34.925Z,27.74
2023-08-22T15:46:02.917Z,27.70
2023-08-22T15:48:30.967Z,28.45
2023-08-22T15:50:59.560Z,28.03
2023-08-22T15:53:27.970Z,27.63
2023-08-22T15:55:55.779Z,26.07
2023-08-22T15:58:23.481Z,26.42
2023-08-22T16:00:51.213Z,26.56
2023-08-22T16:03:19.199Z,26.91
2023-08-22T16:05:46.949Z,27.51
2023-08-22T16:08:14.736Z,27.93
2023-08-22T16:10:42.527Z,28.07
2023-08-22T16:13:11.045Z,28.71
2023-08-22T16:15:40.330Z,28.57
2023-08-22T16:18:08.227Z,28.63
2023-08-22T16:20:36.709Z,28.57
2023-08-22T16:23:04.709Z,27.18
2023-08-22T16:25:32.540Z,27.70
2023-08-22T16:28:00.336Z,28.09
2023-08-22T16:30:28.378Z,28.11
2023-08-22T16:32:56.181Z,28.12
2023-08-22T16:35:24.072Z,29.18
2023-08-22T16:37:51.868Z,28.93
2023-08-22T16:40:19.591Z,27.98
2023-08-22T16:42:47.351Z,29.99
2023-08-22T16:45:15.144Z,31.54
2023-08-22T16:47:43.447Z,31.58
2023-08-22T16:50:11.619Z,31.65
2023-08-22T16:52:39.400Z,30.73
2023-08-22T16:55:08.070Z,29.57
2023-08-22T16:57:35.897Z,28.20
2023-08-22T17:00:08.028Z,28.56
2023-08-22T17:02:35.877Z,28.74
2023-08-22T17:05:04.253Z,28.49
2023-08-22T17:07:32.014Z,28.16
2023-08-22T17:09:59.668Z,27.62
2023-08-22T17:12:27.981Z,27.16
2023-08-22T17:14:55.751Z,27.08
2023-08-22T17:17:23.563Z,27.06
2023-08-22T17:19:51.269Z,27.27
2023-08-22T17:22:19.048Z,27.68
2023-08-22T17:24:46.886Z,27.55
2023-08-22T17:27:14.830Z,27.27
2023-08-22T17:29:42.586Z,26.80
2023-08-22T17:32:10.323Z,26.74
2023-08-22T17:34:38.051Z,26.97
2023-08-22T17:37:06.162Z,27.00
2023-08-22T17:39:33.849Z,26.93
2023-08-22T17:42:01.696Z,26.46
2023-08-22T17:44:29.500Z,27.33
2023-08-22T17:46:57.299Z,27.28
2023-08-22T17:49:25.100Z,27.37
2023-08-22T17:51:53.001Z,27.54
2023-08-22T17:54:20.705Z,27.61
2023-08-22T17:56:51.407Z,27.57
2023-08-22T17:59:19.195Z,27.72
2023-08-22T18:01:48.615Z,27.60
2023-08-22T18:04:17.488Z,27.48
2023-08-22T18:06:45.670Z,27.54
2023-08-22T18:09:14.799Z,27.50
2023-08-22T18:11:43.302Z,27.43
2023-08-22T18:14:11.472Z,27.24
2023-08-22T18:16:39.229Z,27.13
2023-08-22T18:19:07.608Z,26.95
2023-08-22T18:21:35.355Z,26.83
2023-08-22T18:24:03.193Z,26.75
2023-08-22T18:26:32.650Z,26.64
2023-08-22T18:29:00.976Z,26.51
2023-08-22T18:31:29.102Z,26.35
2023-08-22T18:33:57.347Z,26.02
2023-08-22T18:36:32.469Z,25.85
2023-08-22T18:39:00.192Z,25.94
2023-08-22T18:41:27.963Z,25.88
2023-08-22T18:43:55.703Z,25.81
2023-08-22T18:46:25.950Z,25.50
2023-08-22T18:48:54.291Z,25.58
2023-08-22T18:51:22.062Z,25.54
2023-08-22T18:53:49.794Z,25.20
2023-08-22T18:56:18.949Z,25.18
2023-08-22T18:58:47.690Z,25.23
2023-08-22T19:01:16.923Z,25.21
2023-08-22T19:03:44.922Z,25.09
2023-08-22T19:06:12.704Z,25.04
2023-08-22T19:08:40.508Z,24.89
2023-08-22T19:11:08.224Z,24.80
2023-08-22T19:13:36.045Z,24.64
2023-08-22T19:16:07.193Z,24.42
2023-08-22T19:18:35.096Z,24.36
2023-08-22T19:21:02.964Z,24.42
2023-08-22T19:23:30.896Z,23.99
2023-08-22T19:26:02.952Z,24.15
2023-08-22T19:28:31.438Z,24.09
2023-08-22T19:30:59.652Z,24.14
2023-08-22T19:33:30.045Z,24.11
2023-08-22T19:35:58.091Z,23.93
2023-08-22T19:38:26.042Z,24.04
2023-08-22T19:40:56.119Z,24.00
2023-08-22T19:43:23.883Z,23.92
2023-08-22T19:45:53.592Z,23.90
2023-08-22T19:48:23.462Z,23.88
2023-08-22T19:50:52.022Z,23.69
2023-08-22T19:53:19.985Z,23.79
2023-08-22T19:55:48.638Z,23.64
2023-08-22T19:58:16.875Z,23.74
2023-08-22T20:00:47.225Z,23.73
2023-08-22T20:03:15.177Z,23.53
2023-08-22T20:05:44.791Z,23.71
2023-08-22T20:08:12.641Z,23.71
2023-08-22T20:10:40.858Z,23.77
2023-08-22T20:13:08.561Z,23.76
2023-08-22T20:15:36.197Z,23.62
2023-08-22T20:18:04.058Z,23.65
2023-08-22T20:20:31.940Z,23.52
2023-08-22T20:22:59.948Z,23.59
2023-08-22T20:25:27.767Z,23.45
2023-08-22T20:27:55.558Z,23.45
2023-08-22T20:30:23.306Z,23.33
2023-08-22T20:32:51.255Z,23.25
2023-08-22T20:35:20.157Z,23.25
2023-08-22T20:37:51.283Z,23.22
2023-08-22T20:40:19.079Z,23.12
2023-08-22T20:42:49.623Z,23.09
2023-08-22T20:45:17.653Z,23.05
2023-08-22T20:47:45.754Z,23.01
2023-08-22T20:50:13.778Z,23.00
2023-08-22T20:52:41.493Z,22.93
2023-08-22T20:55:09.637Z,22.77
2023-08-22T20:57:37.508Z,22.79
2023-08-22T21:00:09.712Z,22.74
2023-08-22T21:02:39.237Z,22.60
2023-08-22T21:05:07.570Z,22.53
2023-08-22T21:07:35.508Z,22.29
2023-08-22T21:10:03.993Z,22.32
2023-08-22T21:12:35.883Z,22.37
2023-08-22T21:15:07.400Z,22.37
2023-08-22T21:17:35.324Z,22.38
2023-08-22T21:20:05.369Z,22.34
2023-08-22T21:22:33.245Z,22.33
2023-08-22T21:25:00.933Z,22.32
2023-08-22T21:27:28.627Z,22.18
2023-08-22T21:29:56.330Z,22.33
2023-08-22T21:32:24.185Z,22.32
2023-08-22T21:34:53.435Z,22.16
2023-08-22T21:37:22.781Z,22.14
2023-08-22T21:39:50.621Z,22.09
2023-08-22T21:42:18.560Z,22.00
2023-08-22T21:44:46.286Z,22.04
2023-08-22T21:47:14.006Z,22.03
2023-08-22T21:49:41.695Z,21.99
2023-08-22T21:52:09.425Z,21.96
2023-08-22T21:54:37.326Z,21.86
2023-08-22T21:57:05.105Z,21.78
2023-08-22T21:59:32.816Z,21.73
2023-08-22T22:02:00.711Z,21.72
2023-08-22T22:04:28.517Z,21.67
2023-08-22T22:06:56.407Z,21.62
2023-08-22T22:09:24.173Z,21.58
2023-08-22T22:11:51.897Z,21.64
2023-08-22T22:14:19.607Z,21.53
2023-08-22T22:16:47.495Z,21.55
2023-08-22T22:19:15.461Z,21.53
2023-08-22T22:21:43.685Z,21.49
2023-08-22T22:24:11.488Z,21.47
2023-08-22T22:26:39.373Z,21.48
2023-08-22T22:29:07.085Z,21.36
2023-08-22T22:31:34.920Z,21.32
2023-08-22T22:34:02.728Z,21.25
2023-08-22T22:36:30.746Z,21.25
2023-08-22T22:38:58.682Z,21.17
2023-08-22T22:41:26.478Z,21.22
2023-08-22T22:43:54.249Z,21.20
2023-08-22T22:46:22.250Z,21.13
2023-08-22T22:48:49.975Z,21.11
2023-08-22T22:51:17.712Z,21.04
2023-08-22T22:53:45.559Z,21.01
2023-08-22T22:56:13.257Z,20.97
2023-08-22T22:58:40.928Z,20.90
2023-08-22T23:01:09.614Z,20.87
2023-08-22T23:03:37.682Z,20.77
2023-08-22T23:06:10.353Z,20.74
2023-08-22T23:08:38.161Z,20.79
2023-08-22T23:11:10.779Z,20.63
2023-08-22T23:13:53.566Z,20.48
2023-08-22T23:16:21.297Z,20.47
2023-08-22T23:18:49.020Z,20.48
2023-08-22T23:21:16.735Z,20.31
2023-08-22T23:23:44.477Z,20.30
2023-08-22T23:26:12.197Z,20.06
2023-08-22T23:28:40.072Z,20.23
2023-08-22T23:31:07.787Z,20.02
2023-08-22T23:33:35.545Z,20.21
2023-08-22T23:36:03.414Z,20.08
2023-08-22T23:38:31.296Z,19.36
2023-08-22T23:40:58.964Z,19.90
2023-08-22T23:43:26.759Z,19.99
2023-08-22T23:45:54.406Z,20.10
2023-08-22T23:48:22.110Z,20.12
2023-08-22T23:50:51.260Z,20.12
2023-08-22T23:53:21.630Z,20.04
2023-08-22T23:55:49.332Z,19.87
2023-08-22T23:58:17.081Z,19.95
